createdAt,value
2022-12-09T00:01:28.260Z,30.10
2022-12-09T00:03:58.038Z,29.70
2022-12-09T00:06:30.358Z,31.47
2022-12-09T00:09:00.303Z,29.57
2022-12-09T00:11:29.179Z,29.77
2022-12-09T00:13:59.595Z,29.80
2022-12-09T00:16:28.426Z,29.43
2022-12-09T00:18:59.659Z,31.23
2022-12-09T00:21:32.324Z,30.80
2022-12-09T00:24:02.523Z,28.67
2022-12-09T00:26:31.602Z,30.57
2022-12-09T00:29:01.664Z,30.37
2022-12-09T00:31:33.176Z,29.90
2022-12-09T00:34:04.041Z,30.13
2022-12-09T00:36:34.741Z,30.97
2022-12-09T00:39:03.549Z,31.50
2022-12-09T00:41:32.141Z,31.57
2022-12-09T00:44:00.818Z,31.17
2022-12-09T00:46:29.637Z,30.43
2022-12-09T00:48:58.698Z,31.23
2022-12-09T00:51:27.596Z,30.97
2022-12-09T00:53:57.497Z,31.47
2022-12-09T00:56:30.118Z,33.27
2022-12-09T00:58:59.574Z,31.70
2022-12-09T01:01:29.222Z,32.07
2022-12-09T01:03:58.897Z,31.90
2022-12-09T01:06:28.332Z,32.97
2022-12-09T01:08:58.644Z,31.73
2022-12-09T01:11:30.117Z,33.90
2022-12-09T01:14:01.629Z,31.23
2022-12-09T01:16:32.643Z,30.93
2022-12-09T01:19:04.884Z,31.93
2022-12-09T01:21:34.959Z,31.57
2022-12-09T01:24:08.634Z,30.60
2022-12-09T01:26:37.602Z,33.97
2022-12-09T01:29:06.937Z,32.10
2022-12-09T01:31:35.538Z,32.63
2022-12-09T01:34:04.558Z,32.43
2022-12-09T01:36:33.167Z,30.87
2022-12-09T01:39:02.084Z,32.93
2022-12-09T01:41:32.079Z,30.20
2022-12-09T01:44:22.601Z,33.40
2022-12-09T01:46:55.303Z,33.33
2022-12-09T01:49:27.698Z,32.53
2022-12-09T01:52:04.802Z,34.30
2022-12-09T01:54:34.065Z,32.30
2022-12-09T01:57:06.584Z,33.83
2022-12-09T01:59:37.833Z,32.23
2022-12-09T02:02:10.848Z,31.43
2022-12-09T02:04:46.282Z,33.50
2022-12-09T02:07:17.213Z,31.77
2022-12-09T02:09:45.722Z,32.83
2022-12-09T02:12:18.681Z,31.70
2022-12-09T02:14:57.278Z,33.50
2022-12-09T02:17:33.612Z,31.87
2022-12-09T02:20:14.581Z,32.47
2022-12-09T02:22:47.084Z,32.07
2022-12-09T02:25:27.911Z,31.70
2022-12-09T02:28:16.410Z,31.87
2022-12-09T02:30:57.215Z,33.87
2022-12-09T02:33:46.234Z,33.17
2022-12-09T02:36:22.211Z,34.47
2022-12-09T02:38:53.893Z,33.13
2022-12-09T02:41:27.599Z,33.07
2022-12-09T02:44:05.478Z,33.47
2022-12-09T02:46:37.268Z,34.63
2022-12-09T02:49:10.847Z,33.43
2022-12-09T02:51:42.688Z,33.20
2022-12-09T02:54:16.688Z,33.37
2022-12-09T02:56:52.478Z,32.40
2022-12-09T02:59:21.462Z,32.27
2022-12-09T03:02:04.716Z,34.40
2022-12-09T03:04:33.529Z,34.90
2022-12-09T03:07:14.664Z,34.00
2022-12-09T03:09:49.099Z,34.10
2022-12-09T03:12:21.304Z,36.17
2022-12-09T03:14:53.852Z,35.33
2022-12-09T03:17:27.557Z,33.70
2022-12-09T03:19:59.792Z,33.97
2022-12-09T03:22:32.746Z,33.87
2022-12-09T03:25:07.000Z,34.80
2022-12-09T03:27:39.549Z,34.13
2022-12-09T03:30:11.458Z,34.83
2022-12-09T03:32:43.062Z,34.03
2022-12-09T03:35:17.085Z,36.00
2022-12-09T03:37:49.061Z,34.97
2022-12-09T03:40:21.274Z,35.23
2022-12-09T03:42:55.067Z,36.03
2022-12-09T03:45:24.890Z,35.87
2022-12-09T03:47:54.252Z,35.17
2022-12-09T03:50:25.217Z,35.40
2022-12-09T03:53:01.418Z,35.33
2022-12-09T03:55:36.212Z,35.77
2022-12-09T03:58:07.379Z,34.33
2022-12-09T04:00:39.030Z,34.07
2022-12-09T04:03:09.815Z,34.60
2022-12-09T04:05:40.229Z,34.47
2022-12-09T04:08:10.786Z,33.93
2022-12-09T04:10:39.408Z,34.40
2022-12-09T04:13:08.562Z,32.77
2022-12-09T04:15:39.933Z,35.57
2022-12-09T04:18:08.844Z,31.73
2022-12-09T04:20:38.190Z,35.10
2022-12-09T04:23:06.754Z,33.23
2022-12-09T04:25:38.552Z,33.40
2022-12-09T04:28:07.291Z,36.03
2022-12-09T04:30:36.062Z,34.73
2022-12-09T04:33:04.721Z,35.90
2022-12-09T04:35:33.209Z,34.73
2022-12-09T04:38:02.160Z,36.97
2022-12-09T04:40:30.881Z,37.43
2022-12-09T04:43:00.803Z,36.87
2022-12-09T04:45:29.239Z,35.47
2022-12-09T04:47:59.468Z,35.63
2022-12-09T04:50:28.209Z,36.00
2022-12-09T04:52:56.706Z,36.80
2022-12-09T04:55:25.350Z,35.67
2022-12-09T04:57:54.251Z,36.33
2022-12-09T05:00:25.293Z,34.07
2022-12-09T05:02:54.292Z,35.67
2022-12-09T05:05:23.522Z,36.80
2022-12-09T05:07:52.428Z,35.17
2022-12-09T05:10:21.540Z,36.53
2022-12-09T05:12:50.332Z,35.60
2022-12-09T05:15:19.595Z,35.40
2022-12-09T05:17:49.863Z,36.50
2022-12-09T05:20:18.859Z,36.33
2022-12-09T05:22:47.812Z,37.67
2022-12-09T05:25:16.893Z,35.90
2022-12-09T05:27:45.547Z,36.03
2022-12-09T05:30:15.140Z,36.90
2022-12-09T05:32:44.759Z,35.63
2022-12-09T05:35:15.365Z,38.03
2022-12-09T05:37:44.326Z,37.20
2022-12-09T05:40:14.133Z,38.20
2022-12-09T05:42:42.963Z,36.77
2022-12-09T05:45:12.524Z,38.47
2022-12-09T05:47:41.783Z,38.83
2022-12-09T05:50:12.355Z,38.87
2022-12-09T05:52:42.801Z,38.87
2022-12-09T05:55:12.039Z,37.83
2022-12-09T05:57:40.952Z,37.63
2022-12-09T06:00:10.816Z,37.40
2022-12-09T06:02:43.000Z,36.30
2022-12-09T06:05:12.344Z,36.47
2022-12-09T06:07:43.324Z,35.30
2022-12-09T06:10:13.166Z,34.47
2022-12-09T06:12:42.417Z,36.03
2022-12-09T06:15:15.822Z,35.27
2022-12-09T06:17:49.649Z,37.90
2022-12-09T06:20:18.954Z,35.90
2022-12-09T06:22:49.148Z,34.93
2022-12-09T06:25:18.072Z,36.03
2022-12-09T06:27:47.350Z,38.10
2022-12-09T06:30:16.292Z,37.67
2022-12-09T06:32:45.296Z,38.03
2022-12-09T06:35:15.195Z,37.00
2022-12-09T06:37:44.256Z,34.93
2022-12-09T06:40:14.648Z,37.63
2022-12-09T06:42:43.345Z,37.80
2022-12-09T06:45:13.273Z,39.93
2022-12-09T06:47:42.823Z,38.93
2022-12-09T06:50:12.343Z,37.00
2022-12-09T06:52:42.148Z,39.60
2022-12-09T06:55:13.177Z,40.17
2022-12-09T06:57:43.818Z,41.27
2022-12-09T07:00:14.065Z,38.97
2022-12-09T07:02:42.729Z,38.27
2022-12-09T07:05:12.864Z,39.83
2022-12-09T07:07:41.935Z,37.20
2022-12-09T07:10:17.754Z,36.47
2022-12-09T07:12:48.255Z,38.73
2022-12-09T07:15:17.056Z,38.80
2022-12-09T07:17:46.059Z,39.30
2022-12-09T07:20:14.912Z,41.27
2022-12-09T07:22:43.700Z,39.77
2022-12-09T07:25:12.611Z,40.00
2022-12-09T07:27:41.790Z,39.83
2022-12-09T07:30:12.976Z,40.70
2022-12-09T07:32:41.585Z,41.17
2022-12-09T07:35:11.438Z,40.93
2022-12-09T07:37:40.573Z,40.17
2022-12-09T07:40:09.866Z,39.37
2022-12-09T07:42:38.627Z,38.27
2022-12-09T07:45:09.114Z,38.43
2022-12-09T07:47:39.458Z,39.43
2022-12-09T07:50:09.786Z,39.53
2022-12-09T07:52:38.530Z,37.63
2022-12-09T07:55:09.163Z,37.60
2022-12-09T07:57:38.719Z,35.60
2022-12-09T08:00:09.389Z,36.30
2022-12-09T08:02:42.146Z,36.40
2022-12-09T08:05:11.843Z,35.27
2022-12-09T08:07:44.265Z,38.17
2022-12-09T08:10:13.986Z,35.33
2022-12-09T08:12:43.070Z,36.93
2022-12-09T08:15:13.083Z,36.03
2022-12-09T08:17:43.552Z,36.47
2022-12-09T08:20:13.551Z,39.30
2022-12-09T08:22:42.681Z,37.97
2022-12-09T08:25:12.268Z,37.20
2022-12-09T08:27:41.095Z,37.23
2022-12-09T08:30:11.286Z,36.87
2022-12-09T08:32:40.200Z,36.73
2022-12-09T08:35:15.235Z,36.80
2022-12-09T08:37:45.177Z,37.00
2022-12-09T08:40:14.781Z,33.93
2022-12-09T08:42:43.883Z,36.03
2022-12-09T08:45:12.671Z,35.33
2022-12-09T08:47:42.696Z,36.40
2022-12-09T08:50:13.517Z,36.37
2022-12-09T08:52:43.127Z,36.30
2022-12-09T08:55:12.115Z,37.70
2022-12-09T08:57:41.184Z,38.83
2022-12-09T09:00:10.931Z,37.17
2022-12-09T09:02:41.205Z,37.77
2022-12-09T09:05:10.956Z,39.30
2022-12-09T09:07:42.175Z,37.43
2022-12-09T09:10:12.144Z,38.00
2022-12-09T09:12:43.912Z,37.03
2022-12-09T09:15:14.398Z,37.50
2022-12-09T09:17:48.166Z,36.97
2022-12-09T09:20:20.279Z,35.77
2022-12-09T09:22:51.046Z,38.37
2022-12-09T09:25:19.854Z,38.30
2022-12-09T09:27:48.516Z,37.40
2022-12-09T09:30:17.778Z,38.07
2022-12-09T09:32:47.040Z,36.60
2022-12-09T09:35:15.792Z,37.10
2022-12-09T09:37:44.629Z,39.23
2022-12-09T09:40:15.528Z,38.13
2022-12-09T09:42:49.212Z,37.03
2022-12-09T09:45:22.049Z,35.83
2022-12-09T09:47:54.401Z,33.93
2022-12-09T09:50:30.942Z,35.43
2022-12-09T09:52:59.951Z,33.13
2022-12-09T09:55:37.501Z,32.23
2022-12-09T09:58:17.028Z,30.70
2022-12-09T10:00:53.440Z,31.20
2022-12-09T10:03:36.559Z,30.87
2022-12-09T10:06:18.760Z,28.10
2022-12-09T10:08:59.463Z,31.33
2022-12-09T10:11:38.638Z,28.53
2022-12-09T10:14:18.447Z,27.33
2022-12-09T10:16:55.341Z,26.17
2022-12-09T10:19:31.006Z,25.73
2022-12-09T10:22:03.548Z,26.03
2022-12-09T10:24:39.971Z,24.87
2022-12-09T10:27:21.189Z,23.33
2022-12-09T10:29:57.834Z,24.27
2022-12-09T10:32:30.786Z,23.17
2022-12-09T10:35:00.390Z,22.10
2022-12-09T10:37:32.223Z,22.93
2022-12-09T10:40:20.261Z,22.53
2022-12-09T10:43:09.632Z,21.97
2022-12-09T10:46:16.816Z,20.93
2022-12-09T10:48:37.684Z,20.43
2022-12-09T10:51:08.815Z,17.83
2022-12-09T10:53:38.242Z,18.30
2022-12-09T10:56:08.541Z,14.47
2022-12-09T10:58:38.685Z,14.97
2022-12-09T11:01:11.146Z,15.03
2022-12-09T11:03:41.500Z,14.97
2022-12-09T11:06:22.148Z,13.83
2022-12-09T11:08:54.650Z,14.50
2022-12-09T11:11:42.079Z,13.77
2022-12-09T11:14:24.177Z,12.70
2022-12-09T11:16:54.585Z,12.40
2022-12-09T11:19:36.001Z,13.10
2022-12-09T11:22:22.513Z,11.57
2022-12-09T11:24:56.520Z,11.10
2022-12-09T11:27:31.931Z,11.33
2022-12-09T11:30:15.557Z,10.73
2022-12-09T11:32:57.169Z,10.77
2022-12-09T11:35:54.250Z,11.00
2022-12-09T11:38:31.465Z,10.30
2022-12-09T11:41:13.442Z,11.27
2022-12-09T11:43:46.632Z,10.57
2022-12-09T11:46:27.290Z,9.77
2022-12-09T11:48:59.631Z,11.03
2022-12-09T11:51:33.274Z,10.27
2022-12-09T11:54:06.720Z,9.03
2022-12-09T11:56:37.284Z,9.73
2022-12-09T11:59:13.108Z,11.27
2022-12-09T12:01:51.349Z,10.17
2022-12-09T12:04:27.887Z,10.90
2022-12-09T12:07:03.729Z,10.10
2022-12-09T12:09:39.109Z,12.77
2022-12-09T12:12:18.513Z,11.77
2022-12-09T12:14:47.260Z,11.07
2022-12-09T12:17:20.992Z,10.97
2022-12-09T12:19:52.227Z,12.70
2022-12-09T12:23:11.790Z,10.77
2022-12-09T12:25:50.199Z,12.87
2022-12-09T12:28:51.752Z,13.70
2022-12-09T12:31:51.501Z,12.47
2022-12-09T12:34:28.496Z,12.53
2022-12-09T12:37:06.423Z,12.93
2022-12-09T12:39:47.312Z,12.20
2022-12-09T12:42:27.628Z,13.50
2022-12-09T12:45:21.717Z,13.10
2022-12-09T12:47:56.689Z,14.63
2022-12-09T12:50:41.235Z,14.07
2022-12-09T12:53:19.193Z,12.53
2022-12-09T12:55:55.028Z,11.83
2022-12-09T12:58:39.251Z,11.67
2022-12-09T13:01:15.622Z,13.00
2022-12-09T13:03:54.600Z,13.57
2022-12-09T13:06:32.457Z,12.63
2022-12-09T13:09:05.270Z,13.73
2022-12-09T13:11:40.017Z,12.97
2022-12-09T13:14:15.178Z,12.60
2022-12-09T13:16:46.031Z,11.17
2022-12-09T13:19:18.602Z,11.17
2022-12-09T13:21:49.087Z,10.60
2022-12-09T13:24:27.450Z,10.27
2022-12-09T13:27:02.339Z,11.57
2022-12-09T13:29:40.677Z,12.10
2022-12-09T13:32:23.756Z,11.87
2022-12-09T13:34:55.530Z,11.77
2022-12-09T13:37:55.812Z,12.20
2022-12-09T13:40:31.339Z,12.80
2022-12-09T13:43:19.577Z,11.10
2022-12-09T13:45:51.951Z,10.83
2022-12-09T13:48:46.280Z,10.97
2022-12-09T13:51:16.179Z,11.43
2022-12-09T13:53:53.712Z,11.87
2022-12-09T13:56:29.973Z,11.10
2022-12-09T13:59:31.056Z,11.17
2022-12-09T14:02:03.304Z,11.57
2022-12-09T14:04:35.097Z,11.10
2022-12-09T14:07:17.764Z,12.07
2022-12-09T14:09:51.168Z,10.50
2022-12-09T14:12:52.831Z,11.73
2022-12-09T14:15:41.983Z,11.87
2022-12-09T14:18:33.060Z,10.57
2022-12-09T14:21:33.709Z,11.97
2022-12-09T14:24:44.735Z,11.30
2022-12-09T14:27:20.821Z,13.93
2022-12-09T14:29:55.881Z,10.57
2022-12-09T14:32:31.058Z,12.77
2022-12-09T14:35:17.468Z,13.33
2022-12-09T14:38:11.312Z,13.90
2022-12-09T14:40:53.421Z,11.47
2022-12-09T14:43:38.591Z,12.63
2022-12-09T14:46:18.909Z,11.57
2022-12-09T14:48:53.761Z,11.53
2022-12-09T14:51:26.171Z,12.23
2022-12-09T14:53:59.335Z,11.30
2022-12-09T14:56:30.163Z,12.10
2022-12-09T14:59:04.232Z,11.13
2022-12-09T15:01:48.531Z,12.10
2022-12-09T15:04:24.795Z,10.60
2022-12-09T15:07:08.638Z,12.63
2022-12-09T15:09:37.145Z,11.33
2022-12-09T15:12:11.483Z,11.60
2022-12-09T15:14:49.742Z,12.63
2022-12-09T15:17:24.067Z,11.37
2022-12-09T15:20:01.333Z,12.10
2022-12-09T15:22:32.776Z,11.10
2022-12-09T15:25:03.226Z,11.80
2022-12-09T15:27:33.759Z,11.37
2022-12-09T15:30:21.690Z,12.20
2022-12-09T15:32:50.241Z,11.50
2022-12-09T15:35:23.719Z,12.90
2022-12-09T15:37:56.109Z,12.67
2022-12-09T15:40:29.237Z,13.67
2022-12-09T15:43:02.533Z,12.50
2022-12-09T15:45:36.874Z,12.27
2022-12-09T15:48:12.056Z,13.17
2022-12-09T15:50:47.636Z,12.73
2022-12-09T15:53:23.406Z,11.87
2022-12-09T15:55:56.053Z,12.80
2022-12-09T15:58:30.339Z,12.50
2022-12-09T16:01:00.349Z,14.03
2022-12-09T16:03:32.283Z,13.10
2022-12-09T16:06:10.265Z,13.20
2022-12-09T16:08:40.670Z,13.27
2022-12-09T16:11:09.358Z,13.30
2022-12-09T16:13:57.683Z,14.47
2022-12-09T16:16:35.263Z,14.30
2022-12-09T16:19:04.994Z,13.93
2022-12-09T16:21:35.628Z,15.30
2022-12-09T16:24:11.558Z,13.30
2022-12-09T16:26:45.415Z,13.43
2022-12-09T16:29:20.807Z,13.13
2022-12-09T16:32:17.792Z,14.50
2022-12-09T16:34:48.261Z,13.13
2022-12-09T16:37:30.866Z,12.57
2022-12-09T16:40:00.218Z,12.73
2022-12-09T16:42:31.332Z,13.07
2022-12-09T16:45:23.141Z,11.50
2022-12-09T16:47:56.078Z,13.53
2022-12-09T16:50:28.712Z,13.67
2022-12-09T16:52:58.974Z,14.23
2022-12-09T16:55:29.835Z,13.87
2022-12-09T16:57:59.397Z,13.87
2022-12-09T17:00:27.980Z,14.70
2022-12-09T17:03:02.036Z,12.63
2022-12-09T17:05:30.517Z,13.67
2022-12-09T17:07:59.155Z,14.00
2022-12-09T17:10:27.592Z,14.87
2022-12-09T17:12:56.131Z,13.30
2022-12-09T17:15:24.653Z,13.67
2022-12-09T17:17:52.968Z,13.37
2022-12-09T17:20:22.809Z,12.13
2022-12-09T17:22:51.249Z,11.60
2022-12-09T17:25:19.775Z,13.20
2022-12-09T17:27:48.231Z,14.33
2022-12-09T17:30:16.656Z,14.97
2022-12-09T17:32:45.121Z,16.00
2022-12-09T17:35:16.254Z,13.90
2022-12-09T17:37:46.245Z,12.87
2022-12-09T17:40:14.639Z,16.47
2022-12-09T17:42:43.144Z,15.60
2022-12-09T17:45:11.476Z,15.47
2022-12-09T17:47:40.409Z,20.03
2022-12-09T17:50:09.530Z,17.97
2022-12-09T17:52:38.548Z,18.73
2022-12-09T17:55:09.573Z,13.93
2022-12-09T17:57:38.294Z,15.27
2022-12-09T18:00:08.761Z,12.13
2022-12-09T18:02:46.274Z,13.33
2022-12-09T18:05:15.436Z,14.70
2022-12-09T18:07:43.906Z,16.93
2022-12-09T18:10:13.841Z,15.07
2022-12-09T18:12:42.259Z,15.70
2022-12-09T18:15:11.395Z,12.13
2022-12-09T18:17:39.963Z,13.10
2022-12-09T18:20:10.225Z,13.50
2022-12-09T18:22:38.975Z,15.90
2022-12-09T18:25:08.696Z,13.90
2022-12-09T18:27:38.589Z,13.77
2022-12-09T18:30:08.849Z,12.93
2022-12-09T18:32:37.612Z,13.80
2022-12-09T18:35:06.814Z,16.10
2022-12-09T18:37:35.373Z,17.07
2022-12-09T18:40:04.213Z,16.67
2022-12-09T18:42:32.885Z,16.23
2022-12-09T18:45:02.913Z,16.60
2022-12-09T18:47:31.599Z,17.70
2022-12-09T18:49:59.986Z,17.77
2022-12-09T18:52:28.524Z,16.60
2022-12-09T18:54:56.958Z,17.90
2022-12-09T18:57:30.543Z,17.73
2022-12-09T18:59:59.447Z,16.67
2022-12-09T19:02:29.552Z,20.00
2022-12-09T19:04:58.546Z,18.83
2022-12-09T19:07:32.116Z,18.37
2022-12-09T19:10:01.029Z,17.80
2022-12-09T19:12:46.399Z,18.47
2022-12-09T19:15:16.294Z,18.57
2022-12-09T19:17:47.221Z,20.53
2022-12-09T19:20:15.692Z,17.30
2022-12-09T19:22:44.266Z,18.70
2022-12-09T19:25:13.796Z,16.63
2022-12-09T19:27:42.212Z,22.73
2022-12-09T19:30:11.823Z,22.13
2022-12-09T19:32:55.941Z,20.03
2022-12-09T19:35:26.479Z,19.07
2022-12-09T19:38:00.888Z,19.47
2022-12-09T19:40:29.954Z,19.60
2022-12-09T19:42:58.568Z,18.00
2022-12-09T19:45:27.231Z,19.27
2022-12-09T19:47:55.700Z,19.73
2022-12-09T19:50:25.746Z,19.07
2022-12-09T19:52:54.462Z,18.63
2022-12-09T19:55:23.013Z,17.13
2022-12-09T19:57:52.357Z,24.27
2022-12-09T20:00:20.855Z,22.90
2022-12-09T20:02:50.881Z,21.80
2022-12-09T20:05:19.507Z,18.93
2022-12-09T20:07:49.438Z,19.30
2022-12-09T20:10:17.953Z,20.97
2022-12-09T20:12:46.428Z,34.83
2022-12-09T20:15:14.994Z,34.77
2022-12-09T20:17:43.700Z,29.53
2022-12-09T20:20:12.743Z,33.53
2022-12-09T20:22:41.141Z,26.77
2022-12-09T20:25:11.404Z,25.93
2022-12-09T20:27:39.896Z,23.90
2022-12-09T20:30:10.143Z,25.07
2022-12-09T20:32:38.739Z,25.73
2022-12-09T20:35:08.982Z,25.30
2022-12-09T20:37:38.533Z,24.30
2022-12-09T20:40:08.226Z,25.33
2022-12-09T20:42:38.555Z,25.00
2022-12-09T20:45:08.103Z,25.27
2022-12-09T20:47:36.562Z,25.07
2022-12-09T20:50:06.269Z,25.33
2022-12-09T20:52:35.065Z,24.40
2022-12-09T20:55:03.509Z,23.33
2022-12-09T20:57:32.886Z,21.93
2022-12-09T21:00:02.721Z,25.30
2022-12-09T21:02:33.531Z,22.33
2022-12-09T21:05:01.970Z,22.17
2022-12-09T21:07:30.298Z,21.53
2022-12-09T21:09:58.764Z,18.27
2022-12-09T21:12:30.265Z,25.23
2022-12-09T21:14:58.930Z,22.00
2022-12-09T21:17:28.669Z,22.63
2022-12-09T21:19:57.142Z,25.47
2022-12-09T21:22:26.580Z,25.67
2022-12-09T21:24:54.971Z,23.30
2022-12-09T21:27:23.381Z,26.03
2022-12-09T21:29:51.868Z,21.97
2022-12-09T21:32:20.307Z,22.80
2022-12-09T21:34:50.202Z,25.40
2022-12-09T21:37:18.648Z,23.93
2022-12-09T21:39:47.854Z,25.03
2022-12-09T21:42:16.315Z,25.13
2022-12-09T21:44:44.779Z,24.10
2022-12-09T21:47:13.279Z,24.13
2022-12-09T21:49:41.670Z,24.93
2022-12-09T21:52:11.479Z,23.13
2022-12-09T21:54:39.906Z,22.50
2022-12-09T21:57:08.394Z,21.27
2022-12-09T21:59:36.847Z,21.77
2022-12-09T22:02:06.136Z,23.07
2022-12-09T22:04:34.633Z,24.57
2022-12-09T22:07:03.223Z,24.30
2022-12-09T22:09:33.386Z,22.43
2022-12-09T22:12:02.830Z,27.47
2022-12-09T22:14:31.706Z,23.90
2022-12-09T22:17:00.842Z,24.53
2022-12-09T22:19:29.637Z,28.57
2022-12-09T22:21:58.099Z,30.87
2022-12-09T22:24:26.785Z,29.03
2022-12-09T22:26:56.568Z,28.40
2022-12-09T22:29:25.263Z,26.90
2022-12-09T22:31:53.592Z,27.70
2022-12-09T22:34:22.277Z,28.33
2022-12-09T22:36:51.241Z,29.00
2022-12-09T22:39:22.491Z,29.13
2022-12-09T22:44:10.425Z,28.13
2022-12-09T22:46:39.391Z,28.80
2022-12-09T22:49:08.098Z,27.40
2022-12-09T22:51:37.806Z,24.40
2022-12-09T22:54:08.327Z,23.73
2022-12-09T22:56:38.224Z,27.27
2022-12-09T22:59:07.507Z,28.20
2022-12-09T23:01:38.502Z,27.50
2022-12-09T23:04:08.669Z,26.00
2022-12-09T23:06:38.911Z,25.83
2022-12-09T23:09:09.307Z,26.70
2022-12-09T23:11:38.251Z,28.97
2022-12-09T23:14:06.936Z,28.97
2022-12-09T23:16:35.293Z,28.47
2022-12-09T23:19:05.272Z,26.97
2022-12-09T23:21:35.901Z,25.17
2022-12-09T23:24:13.207Z,26.03
2022-12-09T23:26:43.043Z,29.20
2022-12-09T23:29:15.654Z,27.90
2022-12-09T23:31:44.597Z,29.17
2022-12-09T23:34:15.588Z,27.57
2022-12-09T23:36:45.642Z,28.47
2022-12-09T23:39:17.132Z,26.23
2022-12-09T23:41:46.887Z,27.87
2022-12-09T23:44:17.246Z,28.13
2022-12-09T23:46:45.913Z,28.97
2022-12-09T23:49:16.239Z,27.70
2022-12-09T23:51:45.110Z,27.60
2022-12-09T23:54:15.660Z,25.63
2022-12-09T23:56:49.718Z,26.07
2022-12-09T23:59:21.539Z,28.83
